createdAt,value
2019-02-24T00:00:08.843Z,31.19
2019-02-24T00:02:35.803Z,31.33
2019-02-24T00:05:04.396Z,31.08
2019-02-24T00:07:31.411Z,31.05
2019-02-24T00:09:58.760Z,31.16
2019-02-24T00:12:25.604Z,31.08
2019-02-24T00:14:52.428Z,30.93
2019-02-24T00:17:19.749Z,30.74
2019-02-24T00:19:46.756Z,30.82
2019-02-24T00:22:13.529Z,30.77
2019-02-24T00:24:40.544Z,30.73
2019-02-24T00:27:09.511Z,30.79
2019-02-24T00:29:36.310Z,30.94
2019-02-24T00:32:03.358Z,31.27
2019-02-24T00:34:32.373Z,31.41
2019-02-24T00:37:00.683Z,31.45
2019-02-24T00:39:27.618Z,31.46
2019-02-24T00:41:54.410Z,31.77
2019-02-24T00:44:21.998Z,31.69
2019-02-24T00:46:48.774Z,31.69
2019-02-24T00:49:16.241Z,31.79
2019-02-24T00:51:43.367Z,31.75
2019-02-24T00:54:10.184Z,31.54
2019-02-24T00:56:37.249Z,31.51
2019-02-24T00:59:04.609Z,31.56
2019-02-24T01:01:32.067Z,31.80
2019-02-24T01:03:58.869Z,31.70
2019-02-24T01:06:26.088Z,31.51
2019-02-24T01:08:53.315Z,31.58
2019-02-24T01:11:20.576Z,31.44
2019-02-24T01:13:48.736Z,31.38
2019-02-24T01:16:19.462Z,31.41
2019-02-24T01:18:48.584Z,31.36
2019-02-24T01:21:15.731Z,31.27
2019-02-24T01:23:43.696Z,31.11
2019-02-24T01:26:11.728Z,30.97
2019-02-24T01:28:47.214Z,30.86
2019-02-24T01:31:13.930Z,30.82
2019-02-24T01:33:41.110Z,30.99
2019-02-24T01:36:08.262Z,31.01
2019-02-24T01:38:35.823Z,30.80
2019-02-24T01:41:03.375Z,30.60
2019-02-24T01:43:30.328Z,30.50
2019-02-24T01:45:59.242Z,30.52
2019-02-24T01:48:26.131Z,30.31
2019-02-24T01:50:53.917Z,30.24
2019-02-24T01:53:21.032Z,30.26
2019-02-24T01:55:48.018Z,30.07
2019-02-24T01:58:15.189Z,29.90
2019-02-24T02:00:42.019Z,29.88
2019-02-24T02:03:09.033Z,29.76
2019-02-24T02:05:36.421Z,30.18
2019-02-24T02:08:03.387Z,30.35
2019-02-24T02:10:30.443Z,30.45
2019-02-24T02:12:57.474Z,30.49
2019-02-24T02:15:24.837Z,30.57
2019-02-24T02:17:52.296Z,30.79
2019-02-24T02:20:19.095Z,30.87
2019-02-24T02:22:45.864Z,30.76
2019-02-24T02:25:12.927Z,30.74
2019-02-24T02:27:39.701Z,30.61
2019-02-24T02:30:09.355Z,30.27
2019-02-24T02:32:36.242Z,30.08
2019-02-24T02:35:06.083Z,30.23
2019-02-24T02:37:32.877Z,30.51
2019-02-24T02:40:00.139Z,30.73
2019-02-24T02:42:27.056Z,30.84
2019-02-24T02:44:53.856Z,31.01
2019-02-24T02:47:21.035Z,30.96
2019-02-24T02:49:47.850Z,31.10
2019-02-24T02:52:15.052Z,31.14
2019-02-24T02:54:41.874Z,30.83
2019-02-24T02:57:08.684Z,30.85
2019-02-24T02:59:35.972Z,30.89
2019-02-24T03:02:02.791Z,30.95
2019-02-24T03:04:30.112Z,30.79
2019-02-24T03:06:57.049Z,30.98
2019-02-24T03:09:23.919Z,30.51
2019-02-24T03:11:50.925Z,30.24
2019-02-24T03:14:17.860Z,30.22
2019-02-24T03:16:44.972Z,30.31
2019-02-24T03:19:12.140Z,30.62
2019-02-24T03:21:39.920Z,30.97
2019-02-24T03:24:07.190Z,31.16
2019-02-24T03:26:34.090Z,31.23
2019-02-24T03:29:04.088Z,31.43
2019-02-24T03:31:29.817Z,31.59
2019-02-24T03:33:59.623Z,31.64
2019-02-24T03:36:26.955Z,31.46
2019-02-24T03:38:53.872Z,31.50
2019-02-24T03:41:20.860Z,31.49
2019-02-24T03:43:47.779Z,31.56
2019-02-24T03:46:14.732Z,31.42
2019-02-24T03:48:41.535Z,31.36
2019-02-24T03:51:10.568Z,31.65
2019-02-24T03:53:37.678Z,31.80
2019-02-24T03:56:04.945Z,31.94
2019-02-24T03:58:31.732Z,32.04
2019-02-24T04:00:58.936Z,32.01
2019-02-24T04:03:25.694Z,32.04
2019-02-24T04:06:11.407Z,31.82
2019-02-24T04:08:38.488Z,31.97
2019-02-24T04:11:05.258Z,32.15
2019-02-24T04:13:32.381Z,32.40
2019-02-24T04:15:59.282Z,32.53
2019-02-24T04:18:26.054Z,32.77
2019-02-24T04:20:52.857Z,32.63
2019-02-24T04:23:19.651Z,32.06
2019-02-24T04:25:46.590Z,32.07
2019-02-24T04:28:13.363Z,32.31
2019-02-24T04:30:40.618Z,32.89
2019-02-24T04:33:07.772Z,33.55
2019-02-24T04:35:34.487Z,33.74
2019-02-24T04:38:01.313Z,34.49
2019-02-24T04:40:28.422Z,34.84
2019-02-24T04:42:55.212Z,36.23
2019-02-24T04:45:22.370Z,35.62
2019-02-24T04:47:49.324Z,35.30
2019-02-24T04:50:16.195Z,35.41
2019-02-24T04:52:43.055Z,35.42
2019-02-24T04:55:09.819Z,35.48
2019-02-24T04:57:36.589Z,35.74
2019-02-24T05:00:07.741Z,35.81
2019-02-24T05:02:34.631Z,35.84
2019-02-24T05:05:01.577Z,35.21
2019-02-24T05:07:28.539Z,34.61
2019-02-24T05:09:55.359Z,34.61
2019-02-24T05:12:22.135Z,34.46
2019-02-24T05:14:49.045Z,34.44
2019-02-24T05:17:15.922Z,34.62
2019-02-24T05:19:42.958Z,34.91
2019-02-24T05:22:09.835Z,35.16
2019-02-24T05:24:36.573Z,35.59
2019-02-24T05:27:04.131Z,36.32
2019-02-24T05:29:31.388Z,36.31
2019-02-24T05:31:58.637Z,37.35
2019-02-24T05:34:25.628Z,37.40
2019-02-24T05:36:52.861Z,37.60
2019-02-24T05:39:19.728Z,37.82
2019-02-24T05:41:46.497Z,37.77
2019-02-24T05:44:13.666Z,37.67
2019-02-24T05:46:40.566Z,37.63
2019-02-24T05:49:07.349Z,37.36
2019-02-24T05:51:34.613Z,37.56
2019-02-24T05:54:01.838Z,37.78
2019-02-24T05:56:28.704Z,38.42
2019-02-24T05:58:55.546Z,38.14
2019-02-24T06:01:22.789Z,39.11
2019-02-24T06:03:50.094Z,39.37
2019-02-24T06:06:17.325Z,39.35
2019-02-24T06:08:44.191Z,39.40
2019-02-24T06:11:10.957Z,39.80
2019-02-24T06:13:37.688Z,39.55
2019-02-24T06:16:04.452Z,39.25
2019-02-24T06:18:31.324Z,39.02
2019-02-24T06:21:00.891Z,39.02
2019-02-24T06:23:27.639Z,39.40
2019-02-24T06:25:56.391Z,39.24
2019-02-24T06:28:23.267Z,39.00
2019-02-24T06:30:50.026Z,39.28
2019-02-24T06:33:16.802Z,39.18
2019-02-24T06:35:43.749Z,39.35
2019-02-24T06:38:10.597Z,39.53
2019-02-24T06:40:37.421Z,39.43
2019-02-24T06:43:04.407Z,39.17
2019-02-24T06:45:31.159Z,38.78
2019-02-24T06:47:58.409Z,38.26
2019-02-24T06:50:35.006Z,37.90
2019-02-24T06:52:56.723Z,37.75
2019-02-24T06:55:23.531Z,37.51
2019-02-24T06:57:50.366Z,37.26
2019-02-24T07:00:20.348Z,37.97
2019-02-24T07:02:47.107Z,38.35
2019-02-24T07:05:14.008Z,38.83
2019-02-24T07:07:41.028Z,38.94
2019-02-24T07:10:08.388Z,38.75
2019-02-24T07:12:35.258Z,38.67
2019-02-24T07:15:06.181Z,38.89
2019-02-24T07:17:33.032Z,38.95
2019-02-24T07:20:00.269Z,38.63
2019-02-24T07:22:27.055Z,38.46
2019-02-24T07:24:53.855Z,38.06
2019-02-24T07:27:20.588Z,38.11
2019-02-24T07:29:47.487Z,37.95
2019-02-24T07:32:14.348Z,37.79
2019-02-24T07:34:41.637Z,37.82
2019-02-24T07:37:13.080Z,37.68
2019-02-24T07:39:37.760Z,37.57
2019-02-24T07:42:05.440Z,36.95
2019-02-24T07:44:32.765Z,36.47
2019-02-24T07:46:59.599Z,36.07
2019-02-24T07:49:26.560Z,36.06
2019-02-24T07:51:53.319Z,35.92
2019-02-24T07:54:20.462Z,35.92
2019-02-24T07:56:47.278Z,35.13
2019-02-24T07:59:14.352Z,35.05
2019-02-24T08:01:42.627Z,34.28
2019-02-24T08:04:09.641Z,33.93
2019-02-24T08:06:36.807Z,33.16
2019-02-24T08:09:04.282Z,32.48
2019-02-24T08:11:33.170Z,32.06
2019-02-24T08:14:00.431Z,32.00
2019-02-24T08:16:27.261Z,31.30
2019-02-24T08:18:56.776Z,30.63
2019-02-24T08:21:23.991Z,30.06
2019-02-24T08:23:51.089Z,28.95
2019-02-24T08:26:18.229Z,26.79
2019-02-24T08:28:45.768Z,27.51
2019-02-24T08:31:14.854Z,27.52
2019-02-24T08:33:42.083Z,27.14
2019-02-24T08:36:09.520Z,26.64
2019-02-24T08:38:37.427Z,26.69
2019-02-24T08:41:04.438Z,25.84
2019-02-24T08:43:31.674Z,25.89
2019-02-24T08:45:58.711Z,25.22
2019-02-24T08:48:26.117Z,25.07
2019-02-24T08:50:53.230Z,25.03
2019-02-24T08:53:20.280Z,23.18
2019-02-24T08:55:50.223Z,24.22
2019-02-24T08:58:17.857Z,23.83
2019-02-24T09:00:50.758Z,23.68
2019-02-24T09:03:17.024Z,23.26
2019-02-24T09:05:45.990Z,22.97
2019-02-24T09:08:13.622Z,22.92
2019-02-24T09:10:41.262Z,23.44
2019-02-24T09:13:08.084Z,22.06
2019-02-24T09:15:35.517Z,23.23
2019-02-24T09:18:02.573Z,22.75
2019-02-24T09:20:29.475Z,22.90
2019-02-24T09:22:56.712Z,22.63
2019-02-24T09:25:23.579Z,22.84
2019-02-24T09:27:50.694Z,22.28
2019-02-24T09:30:17.663Z,22.54
2019-02-24T09:32:46.528Z,21.08
2019-02-24T09:35:13.603Z,22.26
2019-02-24T09:37:40.874Z,21.84
2019-02-24T09:40:12.141Z,21.85
2019-02-24T09:42:39.009Z,21.50
2019-02-24T09:45:09.762Z,21.54
2019-02-24T09:47:46.082Z,21.66
2019-02-24T09:50:10.315Z,21.36
2019-02-24T09:52:38.634Z,21.55
2019-02-24T09:55:07.558Z,20.92
2019-02-24T09:57:37.012Z,21.02
2019-02-24T10:00:11.744Z,20.90
2019-02-24T10:02:40.156Z,20.78
2019-02-24T10:05:07.036Z,20.32
2019-02-24T10:07:34.062Z,20.37
2019-02-24T10:10:00.909Z,20.78
2019-02-24T10:12:28.344Z,20.18
2019-02-24T10:14:55.520Z,20.13
2019-02-24T10:17:22.339Z,19.89
2019-02-24T10:19:49.305Z,19.76
2019-02-24T10:22:16.205Z,19.06
2019-02-24T10:24:42.962Z,19.40
2019-02-24T10:27:09.875Z,18.65
2019-02-24T10:29:37.000Z,19.17
2019-02-24T10:32:04.003Z,19.04
2019-02-24T10:34:31.382Z,18.79
2019-02-24T10:36:58.682Z,18.68
2019-02-24T10:39:29.646Z,18.29
2019-02-24T10:41:54.467Z,16.58
2019-02-24T10:44:22.069Z,17.77
2019-02-24T10:46:49.977Z,17.64
2019-02-24T10:49:17.014Z,17.59
2019-02-24T10:51:44.082Z,17.52
2019-02-24T10:54:11.401Z,17.28
2019-02-24T10:56:38.524Z,17.25
2019-02-24T10:59:07.154Z,16.97
2019-02-24T11:01:34.444Z,16.54
2019-02-24T11:04:03.933Z,16.53
2019-02-24T11:06:30.968Z,16.21
2019-02-24T11:08:59.193Z,15.83
2019-02-24T11:11:27.734Z,15.27
2019-02-24T11:13:57.297Z,14.70
2019-02-24T11:16:27.190Z,14.95
2019-02-24T11:18:54.323Z,14.67
2019-02-24T11:21:21.404Z,14.48
2019-02-24T11:23:48.621Z,14.27
2019-02-24T11:26:15.907Z,14.08
2019-02-24T11:28:42.919Z,13.94
2019-02-24T11:31:09.974Z,13.92
2019-02-24T11:33:36.749Z,13.78
2019-02-24T11:36:09.962Z,13.95
2019-02-24T11:38:38.475Z,13.96
2019-02-24T11:41:05.375Z,13.87
2019-02-24T11:43:32.725Z,13.53
2019-02-24T11:46:00.416Z,13.51
2019-02-24T11:48:30.395Z,13.55
2019-02-24T11:50:57.734Z,13.89
2019-02-24T11:53:24.545Z,13.98
2019-02-24T11:55:51.390Z,13.98
2019-02-24T11:58:18.270Z,13.98
2019-02-24T12:00:47.782Z,14.13
2019-02-24T12:03:14.879Z,14.24
2019-02-24T12:05:41.731Z,14.23
2019-02-24T12:08:11.021Z,13.97
2019-02-24T12:10:37.844Z,14.14
2019-02-24T12:13:04.744Z,14.03
2019-02-24T12:15:32.340Z,14.08
2019-02-24T12:17:59.205Z,13.99
2019-02-24T12:20:26.701Z,14.07
2019-02-24T12:22:55.567Z,13.81
2019-02-24T12:25:24.227Z,13.81
2019-02-24T12:27:54.634Z,13.78
2019-02-24T12:30:21.885Z,13.62
2019-02-24T12:32:48.928Z,13.42
2019-02-24T12:35:15.823Z,13.06
2019-02-24T12:37:43.460Z,13.08
2019-02-24T12:40:13.064Z,13.09
2019-02-24T12:42:40.225Z,13.29
2019-02-24T12:45:10.670Z,13.05
2019-02-24T12:47:39.526Z,12.57
2019-02-24T12:50:16.327Z,12.92
2019-02-24T12:52:43.436Z,12.73
2019-02-24T12:55:11.601Z,12.47
2019-02-24T12:57:39.557Z,12.53
2019-02-24T13:00:13.245Z,12.50
2019-02-24T13:02:40.058Z,12.67
2019-02-24T13:05:08.704Z,12.60
2019-02-24T13:07:38.505Z,12.61
2019-02-24T13:10:15.854Z,12.40
2019-02-24T13:12:42.792Z,12.13
2019-02-24T13:15:11.430Z,12.36
2019-02-24T13:17:39.990Z,12.28
2019-02-24T13:20:10.089Z,11.84
2019-02-24T13:22:40.259Z,12.17
2019-02-24T13:25:10.245Z,12.30
2019-02-24T13:27:38.047Z,12.05
2019-02-24T13:30:09.730Z,11.78
2019-02-24T13:32:39.594Z,11.94
2019-02-24T13:35:08.537Z,11.99
2019-02-24T13:37:37.217Z,11.95
2019-02-24T13:40:09.560Z,11.87
2019-02-24T13:42:37.186Z,12.06
2019-02-24T13:45:12.866Z,12.00
2019-02-24T13:47:39.939Z,12.25
2019-02-24T13:50:06.841Z,11.79
2019-02-24T13:52:33.674Z,11.31
2019-02-24T13:55:01.076Z,11.20
2019-02-24T13:57:28.142Z,11.39
2019-02-24T13:59:55.496Z,11.46
2019-02-24T14:02:24.314Z,11.70
2019-02-24T14:04:51.371Z,11.66
2019-02-24T14:07:19.397Z,11.72
2019-02-24T14:09:48.427Z,11.74
2019-02-24T14:12:20.043Z,11.81
2019-02-24T14:14:55.475Z,11.98
2019-02-24T14:17:28.077Z,12.11
2019-02-24T14:20:00.255Z,11.78
2019-02-24T14:22:27.699Z,11.88
2019-02-24T14:24:56.861Z,10.03
2019-02-24T14:27:24.511Z,12.31
2019-02-24T14:29:51.858Z,13.00
2019-02-24T14:32:19.666Z,13.68
2019-02-24T14:34:46.620Z,14.30
2019-02-24T14:37:13.752Z,14.76
2019-02-24T14:39:40.636Z,14.96
2019-02-24T14:42:07.416Z,15.40
2019-02-24T14:44:34.674Z,15.55
2019-02-24T14:47:01.636Z,15.69
2019-02-24T14:49:28.388Z,16.05
2019-02-24T14:51:55.725Z,16.23
2019-02-24T14:54:22.609Z,16.38
2019-02-24T14:56:49.839Z,16.27
2019-02-24T14:59:16.613Z,16.25
2019-02-24T15:01:43.727Z,16.33
2019-02-24T15:04:12.893Z,16.31
2019-02-24T15:06:39.936Z,16.25
2019-02-24T15:09:07.481Z,16.23
2019-02-24T15:11:34.303Z,16.26
2019-02-24T15:14:01.410Z,16.27
2019-02-24T15:16:28.364Z,16.12
2019-02-24T15:18:55.232Z,15.95
2019-02-24T15:21:22.368Z,16.08
2019-02-24T15:23:49.139Z,16.17
2019-02-24T15:26:16.244Z,16.43
2019-02-24T15:28:43.116Z,16.57
2019-02-24T15:31:09.909Z,16.74
2019-02-24T15:33:39.787Z,16.89
2019-02-24T15:36:07.100Z,16.81
2019-02-24T15:38:34.366Z,16.98
2019-02-24T15:41:01.427Z,16.84
2019-02-24T15:43:28.847Z,16.90
2019-02-24T15:45:55.635Z,16.92
2019-02-24T15:48:22.377Z,17.03
2019-02-24T15:50:49.864Z,17.22
2019-02-24T15:53:16.801Z,17.34
2019-02-24T15:55:44.759Z,17.33
2019-02-24T15:58:11.706Z,17.46
2019-02-24T16:00:38.674Z,17.48
2019-02-24T16:03:05.445Z,17.33
2019-02-24T16:05:32.205Z,17.13
2019-02-24T16:08:00.755Z,17.12
2019-02-24T16:10:27.709Z,17.22
2019-02-24T16:12:54.897Z,17.18
2019-02-24T16:15:24.918Z,17.34
2019-02-24T16:17:52.033Z,17.44
2019-02-24T16:20:26.272Z,17.73
2019-02-24T16:22:53.056Z,17.87
2019-02-24T16:25:19.839Z,17.65
2019-02-24T16:27:46.862Z,17.61
2019-02-24T16:30:14.782Z,17.53
2019-02-24T16:32:41.670Z,17.67
2019-02-24T16:35:14.679Z,17.93
2019-02-24T16:37:41.475Z,18.17
2019-02-24T16:40:21.085Z,18.52
2019-02-24T16:42:47.886Z,18.83
2019-02-24T16:45:15.235Z,19.22
2019-02-24T16:47:42.617Z,20.03
2019-02-24T16:50:20.839Z,20.45
2019-02-24T16:52:47.720Z,21.08
2019-02-24T16:55:19.679Z,21.86
2019-02-24T16:57:46.732Z,23.19
2019-02-24T17:00:20.029Z,24.04
2019-02-24T17:02:47.205Z,24.73
2019-02-24T17:05:14.153Z,25.18
2019-02-24T17:07:40.929Z,25.48
2019-02-24T17:10:20.805Z,25.81
2019-02-24T17:12:47.785Z,26.08
2019-02-24T17:15:14.848Z,26.16
2019-02-24T17:17:41.636Z,26.21
2019-02-24T17:20:15.082Z,26.01
2019-02-24T17:22:41.856Z,26.03
2019-02-24T17:25:09.472Z,26.24
2019-02-24T17:27:36.653Z,26.90
2019-02-24T17:30:08.976Z,26.90
2019-02-24T17:32:35.748Z,26.68
2019-02-24T17:35:04.349Z,26.67
2019-02-24T17:37:31.244Z,26.94
2019-02-24T17:39:58.036Z,26.50
2019-02-24T17:42:25.337Z,26.09
2019-02-24T17:44:52.174Z,26.03
2019-02-24T17:47:19.464Z,25.99
2019-02-24T17:49:46.317Z,26.13
2019-02-24T17:52:13.485Z,26.31
2019-02-24T17:54:40.276Z,26.64
2019-02-24T17:57:07.030Z,27.04
2019-02-24T17:59:40.152Z,27.09
2019-02-24T18:02:03.620Z,27.42
2019-02-24T18:04:30.484Z,27.82
2019-02-24T18:06:57.242Z,28.28
2019-02-24T18:09:26.647Z,28.44
2019-02-24T18:11:53.532Z,28.49
2019-02-24T18:14:20.321Z,28.40
2019-02-24T18:16:47.119Z,28.64
2019-02-24T18:19:14.239Z,28.73
2019-02-24T18:21:41.254Z,29.05
2019-02-24T18:24:09.222Z,29.40
2019-02-24T18:26:36.064Z,29.55
2019-02-24T18:29:03.286Z,30.07
2019-02-24T18:31:30.219Z,31.04
2019-02-24T18:33:57.352Z,31.32
2019-02-24T18:36:24.266Z,31.01
2019-02-24T18:38:51.064Z,31.20
2019-02-24T18:41:21.302Z,31.12
2019-02-24T18:43:48.525Z,31.16
2019-02-24T18:46:15.386Z,31.26
2019-02-24T18:48:42.837Z,31.33
2019-02-24T18:51:09.951Z,31.78
2019-02-24T18:53:36.882Z,31.87
2019-02-24T18:56:03.790Z,32.08
2019-02-24T18:58:31.216Z,32.28
2019-02-24T19:00:58.316Z,32.45
2019-02-24T19:03:26.058Z,32.70
2019-02-24T19:05:56.032Z,32.99
2019-02-24T19:08:23.121Z,33.42
2019-02-24T19:10:50.055Z,33.73
2019-02-24T19:13:21.232Z,33.63
2019-02-24T19:15:49.304Z,34.85
2019-02-24T19:18:16.604Z,34.50
2019-02-24T19:20:43.747Z,34.46
2019-02-24T19:23:10.676Z,34.01
2019-02-24T19:25:37.812Z,34.02
2019-02-24T19:28:04.898Z,33.87
2019-02-24T19:30:31.702Z,33.99
2019-02-24T19:32:58.514Z,33.85
2019-02-24T19:35:25.472Z,34.02
2019-02-24T19:37:52.419Z,34.07
2019-02-24T19:40:20.809Z,33.71
2019-02-24T19:42:47.918Z,33.68
2019-02-24T19:45:21.748Z,33.79
2019-02-24T19:47:48.524Z,33.78
2019-02-24T19:50:16.591Z,34.12
2019-02-24T19:52:43.389Z,34.37
2019-02-24T19:55:12.884Z,34.40
2019-02-24T19:57:39.658Z,34.71
2019-02-24T20:00:24.208Z,34.66
2019-02-24T20:02:51.511Z,34.25
2019-02-24T20:05:19.426Z,34.31
2019-02-24T20:07:46.891Z,34.21
2019-02-24T20:10:24.568Z,33.93
2019-02-24T20:12:51.333Z,34.41
2019-02-24T20:15:18.096Z,34.74
2019-02-24T20:17:45.250Z,35.26
2019-02-24T20:20:14.505Z,35.46
2019-02-24T20:22:41.435Z,35.11
2019-02-24T20:25:12.723Z,35.06
2019-02-24T20:27:39.464Z,35.08
2019-02-24T20:30:17.441Z,35.48
2019-02-24T20:32:44.203Z,35.44
2019-02-24T20:35:11.203Z,35.04
2019-02-24T20:37:39.334Z,34.80
2019-02-24T20:40:08.904Z,34.35
2019-02-24T20:42:35.649Z,33.88
2019-02-24T20:45:02.746Z,33.67
2019-02-24T20:47:29.926Z,33.80
2019-02-24T20:49:56.816Z,33.99
2019-02-24T20:52:23.693Z,34.10
2019-02-24T20:54:50.679Z,34.33
2019-02-24T20:57:18.242Z,34.49
2019-02-24T20:59:45.013Z,35.12
2019-02-24T21:02:11.833Z,35.27
2019-02-24T21:04:38.975Z,35.33
2019-02-24T21:07:05.755Z,35.23
2019-02-24T21:09:32.600Z,35.20
2019-02-24T21:12:01.312Z,35.26
2019-02-24T21:14:28.437Z,35.46
2019-02-24T21:16:55.186Z,35.90
2019-02-24T21:19:22.008Z,37.06
2019-02-24T21:21:49.336Z,36.79
2019-02-24T21:24:16.615Z,36.45
2019-02-24T21:26:43.355Z,36.15
2019-02-24T21:29:10.199Z,36.18
2019-02-24T21:31:37.039Z,35.81
2019-02-24T21:34:03.808Z,35.74
2019-02-24T21:36:30.686Z,36.85
2019-02-24T21:38:57.563Z,37.28
2019-02-24T21:41:24.349Z,37.15
2019-02-24T21:43:51.119Z,37.16
2019-02-24T21:46:17.907Z,36.88
2019-02-24T21:48:44.672Z,39.10
2019-02-24T21:51:11.804Z,39.36
2019-02-24T21:53:38.626Z,39.07
2019-02-24T21:56:05.673Z,38.71
2019-02-24T21:58:32.430Z,40.56
2019-02-24T22:00:59.200Z,40.79
2019-02-24T22:03:26.225Z,40.67
2019-02-24T22:05:53.008Z,39.95
2019-02-24T22:08:19.847Z,40.03
2019-02-24T22:10:47.255Z,40.84
2019-02-24T22:13:13.950Z,40.61
2019-02-24T22:15:40.936Z,41.49
2019-02-24T22:18:07.710Z,42.05
2019-02-24T22:20:34.607Z,42.69
2019-02-24T22:23:01.481Z,43.07
2019-02-24T22:25:28.420Z,43.60
2019-02-24T22:27:57.213Z,43.21
2019-02-24T22:30:24.119Z,42.17
2019-02-24T22:32:50.909Z,41.71
2019-02-24T22:35:17.715Z,42.22
2019-02-24T22:37:44.459Z,42.14
2019-02-24T22:40:12.913Z,42.77
2019-02-24T22:42:39.728Z,43.24
2019-02-24T22:45:11.684Z,43.68
2019-02-24T22:47:38.424Z,43.16
2019-02-24T22:50:11.130Z,43.12
2019-02-24T22:52:37.898Z,43.12
2019-02-24T22:55:11.048Z,43.27
2019-02-24T22:57:39.079Z,42.98
2019-02-24T23:00:34.039Z,43.33
2019-02-24T23:03:00.927Z,42.74
2019-02-24T23:05:28.073Z,42.22
2019-02-24T23:07:55.784Z,42.67
2019-02-24T23:10:22.830Z,43.26
2019-02-24T23:12:49.819Z,42.94
2019-02-24T23:15:16.672Z,42.37
2019-02-24T23:17:43.473Z,41.81
2019-02-24T23:20:10.689Z,42.92
2019-02-24T23:22:37.439Z,43.24
2019-02-24T23:25:04.765Z,43.55
2019-02-24T23:27:31.551Z,43.03
2019-02-24T23:29:58.419Z,42.91
2019-02-24T23:32:25.650Z,42.93
2019-02-24T23:34:52.394Z,42.98
2019-02-24T23:37:19.231Z,42.68
2019-02-24T23:39:46.010Z,42.56
2019-02-24T23:42:12.786Z,42.31
2019-02-24T23:44:39.615Z,42.16
2019-02-24T23:47:09.340Z,41.54
2019-02-24T23:49:36.624Z,42.18
2019-02-24T23:52:03.756Z,41.62
2019-02-24T23:54:30.514Z,42.00
2019-02-24T23:56:57.679Z,41.56
2019-02-24T23:59:24.434Z,40.26
